KBHB

Hancock County-Bar Harbor Airport

Bar Harbor, Maine, USA
KBHB 220218Z 2202/2224 19020G28KT P6SM SCT015 WS020/21045KT TEMPO 2206/2209 20020G30KT 2SM -SHRA OVC012 FM220900 24017G26KT P6SM VCSH OVC025 FM221100 29013G21KT P6SM BKN035
Issued Valid From Valid To
Sep-22 @ 02:18 UTC
(an hour ago)
Sep-22 @ 02:00 UTC
(2 hours ago)
Sep-23 @ 00:00 UTC
(in 20 hours)
to
to
to
to
KBHB 220218Z 2202/2224 19020G28KT P6SM SCT015 WS020/21045KT TEMPO 2206/2209 20020G30KT 2SM -SHRA OVC012 FM220900 24017G26KT P6SM VCSH OVC025 FM221100 29013G21KT P6SM BKN035
Issued Sep-22 @ 02:18 UTC
(an hour ago)
Valid From Sep-22 @ 02:00 UTC
(2 hours ago)
Valid To Sep-23 @ 00:00 UTC
(in 20 hours)
-
-
-
-